Time;durP1;ratioP1;P1;durP2;ratioP2;P2;SDS_P1;SDS_P2;PMS_P1;PMS_P2;Temp;Humidity;BMP_temperature;BMP_pressure;BME280_temperature;BME280_humidity;BME280_pressure;Samples;Min_cycle;Max_cycle;Signal;HPM_P1;HPM_P2
2022/11/05 00:19:21;;;;;;;10.65;4.28;;;;;;;5.30;100.00;101239.78;10541761;28;20488;-69
2022/11/05 00:29:43;;;;;;;7.03;4.35;;;;;;;5.01;100.00;101241.91;10541364;28;20075;-69
2022/11/05 00:34:46;;;;;;;8.67;4.30;;;;;;;4.95;100.00;101252.31;10541141;28;20455;-70
2022/11/05 00:39:48;;;;;;;8.77;4.68;;;;;;;4.85;100.00;101261.03;10541170;28;20076;-69
2022/11/05 00:45:01;;;;;;;6.73;4.47;;;;;;;4.73;100.00;101262.06;10538695;28;20116;-69
2022/11/05 00:50:05;;;;;;;7.25;4.38;;;;;;;4.53;100.00;101270.88;10541452;28;20313;-69
2022/11/05 00:55:07;;;;;;;6.35;4.25;;;;;;;4.34;100.00;101283.13;10540570;28;20078;-69
2022/11/05 01:00:11;;;;;;;7.35;4.90;;;;;;;4.31;100.00;101286.59;10540034;28;20097;-69
2022/11/05 01:05:14;;;;;;;7.65;4.75;;;;;;;4.31;100.00;101293.50;10540248;28;20186;-69
2022/11/05 01:10:16;;;;;;;5.55;4.60;;;;;;;4.14;100.00;101296.22;10537761;28;20090;-69
2022/11/05 01:15:19;;;;;;;7.73;4.87;;;;;;;4.08;100.00;101297.97;10540253;28;20125;-69
2022/11/05 01:20:22;;;;;;;8.63;5.53;;;;;;;4.14;100.00;101309.16;10539890;28;20048;-69
2022/11/05 01:25:24;;;;;;;9.25;5.55;;;;;;;4.09;100.00;101322.94;10539299;28;20132;-69
2022/11/05 01:30:26;;;;;;;9.93;5.45;;;;;;;4.18;100.00;101316.00;10539283;28;20051;-69
2022/11/05 01:35:29;;;;;;;9.10;6.07;;;;;;;4.21;100.00;101323.72;10538815;28;20055;-69
2022/11/05 01:40:31;;;;;;;10.50;5.65;;;;;;;4.22;100.00;101322.84;10536649;28;20102;-70
2022/11/05 01:45:35;;;;;;;11.35;6.18;;;;;;;4.26;100.00;101327.13;10538312;28;20472;-70
2022/11/05 01:50:46;;;;;;;16.52;6.68;;;;;;;4.35;100.00;101319.28;10538368;28;20403;-69
2022/11/05 01:55:58;;;;;;;11.70;6.55;;;;;;;4.32;100.00;101319.34;10538700;28;20087;-69
2022/11/05 02:01:01;;;;;;;20.50;6.65;;;;;;;4.33;100.00;101315.00;10537845;28;20454;-70
2022/11/05 02:06:08;;;;;;;11.98;6.53;;;;;;;4.26;100.00;101309.03;10537857;28;20470;-69
2022/11/05 02:11:12;;;;;;;11.20;6.10;;;;;;;4.20;100.00;101314.25;10535018;28;20059;-69
2022/11/05 02:16:37;;;;;;;12.88;7.03;;;;;;;4.22;100.00;101309.94;10537772;28;20512;-69
2022/11/05 02:22:21;;;;;;;13.27;6.55;;;;;;;4.22;100.00;101307.34;10536995;28;20105;-69
2022/11/05 02:27:58;;;;;;;15.95;7.47;;;;;;;4.15;100.00;101311.72;10537204;28;20631;-69
2022/11/05 02:33:31;;;;;;;13.32;7.45;;;;;;;4.15;100.00;101316.00;10537354;28;20100;-69
2022/11/05 02:38:45;;;;;;;15.23;7.40;;;;;;;4.10;100.00;101304.00;10536930;28;20078;-69
2022/11/05 02:44:04;;;;;;;13.05;7.97;;;;;;;4.14;100.00;101307.41;10534445;28;20058;-69
2022/11/05 02:49:22;;;;;;;15.48;8.10;;;;;;;4.03;100.00;101310.06;10537099;28;20052;-69
2022/11/05 02:54:32;;;;;;;17.42;8.82;;;;;;;3.91;100.00;101302.41;10536753;28;20036;-70
2022/11/05 02:59:33;;;;;;;13.75;8.60;;;;;;;3.86;100.00;101311.06;10536630;28;20098;-69
2022/11/05 03:04:36;;;;;;;18.93;9.40;;;;;;;3.92;100.00;101298.97;10536567;28;20056;-69
2022/11/05 03:10:09;;;;;;;16.65;9.23;;;;;;;3.90;100.00;101300.72;10536083;28;20145;-69
2022/11/05 03:15:30;;;;;;;17.85;9.23;;;;;;;3.79;100.00;101299.06;10534088;28;20121;-69
2022/11/05 03:20:44;;;;;;;23.53;10.07;;;;;;;3.68;100.00;101308.59;10536488;28;20049;-69
2022/11/05 03:25:53;;;;;;;18.13;10.65;;;;;;;3.67;100.00;101304.28;10536126;28;20052;-70
2022/11/05 03:30:58;;;;;;;16.23;10.60;;;;;;;3.56;100.00;101312.94;10538749;28;20093;-69
2022/11/05 03:36:07;;;;;;;25.75;10.75;;;;;;;3.52;100.00;101313.84;10543600;28;20442;-69
2022/11/05 03:41:13;;;;;;;23.52;11.27;;;;;;;3.71;100.00;101321.47;10541943;28;20082;-70
2022/11/05 03:46:24;;;;;;;17.83;11.68;;;;;;;3.72;100.00;101318.03;10543291;28;20058;-71
2022/11/05 03:51:39;;;;;;;24.65;12.23;;;;;;;3.72;100.00;101311.16;10542781;28;20048;-69
2022/11/05 03:56:54;;;;;;;29.55;12.05;;;;;;;3.70;100.00;101317.19;10543023;28;20105;-70
2022/11/05 04:01:57;;;;;;;30.50;13.02;;;;;;;3.62;100.00;101318.97;10542691;28;20048;-70
2022/11/05 04:17:46;;;;;;;19.50;11.55;;;;;;;3.65;100.00;101329.25;10542289;28;20057;-70
2022/11/05 04:28:19;;;;;;;19.50;11.80;;;;;;;3.56;100.00;101340.50;10541497;28;20052;-70
2022/11/05 04:33:21;;;;;;;22.02;12.55;;;;;;;3.72;100.00;101338.69;10541832;28;20112;-72
2022/11/05 04:38:24;;;;;;;21.13;12.20;;;;;;;3.76;100.00;101335.22;10541833;28;20052;-72
2022/11/05 04:43:26;;;;;;;23.00;12.60;;;;;;;3.76;100.00;101335.22;10537996;28;20058;-72
2022/11/05 04:48:27;;;;;;;23.57;12.97;;;;;;;3.69;100.00;101338.69;10540822;28;20430;-70
2022/11/05 04:53:31;;;;;;;23.93;12.53;;;;;;;3.65;100.00;101344.72;10541156;28;20048;-72
2022/11/05 04:58:32;;;;;;;22.95;13.00;;;;;;;3.56;100.00;101351.66;10540873;28;20314;-68
2022/11/05 05:03:34;;;;;;;22.30;13.23;;;;;;;3.67;100.00;101351.63;10540662;28;20044;-71
2022/11/05 05:08:37;;;;;;;23.90;13.10;;;;;;;3.72;100.00;101359.34;10539939;28;20564;-72
2022/11/05 05:13:39;;;;;;;22.58;13.50;;;;;;;3.81;100.00;101354.13;10538074;28;20174;-69
2022/11/05 05:18:41;;;;;;;22.90;12.25;;;;;;;3.79;100.00;101361.00;10539446;28;20051;-72
2022/11/05 05:23:47;;;;;;;19.73;13.13;;;;;;;3.74;100.00;101362.78;10539941;28;20044;-73
2022/11/05 05:28:48;;;;;;;25.40;12.45;;;;;;;3.79;100.00;101362.72;10539691;28;20302;-73
2022/11/05 05:33:53;;;;;;;22.90;13.07;;;;;;;3.67;100.00;101366.25;10539547;28;20054;-71
2022/11/05 05:38:56;;;;;;;20.02;12.52;;;;;;;3.71;100.00;101373.97;10538979;28;20079;-73
2022/11/05 05:43:58;;;;;;;22.77;12.50;;;;;;;3.68;100.00;101373.13;10536157;28;20054;-71
2022/11/05 05:48:59;;;;;;;26.33;12.23;;;;;;;3.58;100.00;101386.09;10538587;28;20062;-73
2022/11/05 05:54:03;;;;;;;23.80;13.15;;;;;;;3.52;100.00;101378.34;10537377;28;20065;-72
2022/11/05 05:59:06;;;;;;;26.33;13.38;;;;;;;3.50;100.00;101380.09;10539695;28;20105;-69
2022/11/05 06:04:09;;;;;;;28.63;14.05;;;;;;;3.47;100.00;101377.53;10538957;28;20062;-69
2022/11/05 06:09:13;;;;;;;21.67;12.32;;;;;;;3.47;100.00;101380.09;10537991;28;20058;-70
2022/11/05 06:14:14;;;;;;;23.52;12.73;;;;;;;3.41;100.00;101383.56;10535374;28;20058;-71
2022/11/05 06:19:16;;;;;;;25.83;12.33;;;;;;;3.40;100.00;101383.56;10537492;28;20108;-71
2022/11/05 06:24:19;;;;;;;19.27;11.57;;;;;;;3.38;100.00;101390.47;10537462;28;20048;-72
2022/11/05 06:29:21;;;;;;;20.83;12.30;;;;;;;3.38;100.00;101391.31;10536969;28;20160;-70
2022/11/05 06:34:22;;;;;;;32.93;13.03;;;;;;;3.31;100.00;101387.91;10537420;28;20060;-70
2022/11/05 06:39:25;;;;;;;23.27;11.30;;;;;;;3.38;100.00;101393.91;10537120;28;20121;-71
2022/11/05 06:44:28;;;;;;;24.05;11.70;;;;;;;3.33;100.00;101399.09;10534224;28;20063;-71
2022/11/05 06:49:29;;;;;;;24.35;11.65;;;;;;;3.29;100.00;101396.50;10537074;28;20059;-71
2022/11/05 06:54:32;;;;;;;23.80;11.03;;;;;;;3.31;100.00;101395.66;10536488;28;20059;-71
2022/11/05 06:59:34;;;;;;;20.67;11.15;;;;;;;3.35;100.00;101401.63;10536395;28;20551;-71
2022/11/05 07:04:37;;;;;;;21.20;12.27;;;;;;;3.44;100.00;101411.94;10537265;28;20059;-71
2022/11/05 07:09:41;;;;;;;20.55;11.07;;;;;;;3.52;100.00;101411.06;10544803;28;20052;-70
2022/11/05 07:14:43;;;;;;;19.98;11.00;;;;;;;3.53;100.00;101421.38;10543341;28;20064;-72
2022/11/05 07:19:45;;;;;;;20.47;10.90;;;;;;;3.63;100.00;101418.75;10544943;28;20040;-73
2022/11/05 07:24:49;;;;;;;17.42;9.95;;;;;;;3.73;100.00;101420.44;10544267;28;20446;-70
2022/11/05 07:29:50;;;;;;;16.23;9.95;;;;;;;3.78;100.00;101426.44;10544354;28;20040;-72
2022/11/05 07:34:52;;;;;;;18.50;10.80;;;;;;;3.84;100.00;101430.72;10544238;28;20058;-72
2022/11/05 07:39:55;;;;;;;19.53;11.30;;;;;;;3.93;100.00;101441.00;10543952;28;20130;-73
2022/11/05 07:44:56;;;;;;;19.90;10.02;;;;;;;4.09;100.00;101446.94;10540930;28;20062;-73
2022/11/05 07:49:58;;;;;;;21.93;10.90;;;;;;;4.20;100.00;101448.59;10543588;28;20065;-72
2022/11/05 07:55:01;;;;;;;22.83;11.93;;;;;;;4.32;100.00;101453.72;10543179;28;20108;-69
2022/11/05 08:00:03;;;;;;;19.20;11.77;;;;;;;4.47;100.00;101447.56;10542652;28;20621;-69
2022/11/05 08:05:06;;;;;;;16.10;10.35;;;;;;;4.73;100.00;101448.25;10542548;28;20048;-68
2022/11/05 08:10:09;;;;;;;;;;;;;;;5.63;100.00;101447.34;10542675;28;20487;-70
2022/11/05 08:15:11;;;;;;;20.13;11.27;;;;;;;6.67;100.00;101452.84;10539635;28;19920;-69
2022/11/05 08:20:14;;;;;;;16.98;11.57;;;;;;;7.17;100.00;101446.81;10541245;28;20384;-70
2022/11/05 08:25:17;;;;;;;21.65;12.25;;;;;;;7.85;100.00;101439.41;10541936;28;20112;-69
2022/11/05 08:30:19;;;;;;;18.48;11.20;;;;;;;8.61;100.00;101449.00;10541238;28;20052;-69
2022/11/05 08:35:20;;;;;;;14.85;8.95;;;;;;;9.01;100.00;101447.97;10541312;28;20466;-73
2022/11/05 08:40:23;;;;;;;13.82;8.50;;;;;;;9.93;100.00;101447.22;10540751;28;20085;-75
2022/11/05 08:45:26;;;;;;;10.13;7.30;;;;;;;10.27;100.00;101448.75;10541204;28;20503;-71
2022/11/05 08:50:28;;;;;;;13.68;7.30;;;;;;;9.45;100.00;101451.19;10541454;28;20105;-74
2022/11/05 08:55:31;;;;;;;11.23;6.72;;;;;;;10.50;100.00;101451.59;10540859;28;20093;-76
2022/11/05 09:00:36;;;;;;;11.40;6.85;;;;;;;10.20;100.00;101444.66;10540692;28;20036;-76
2022/11/05 09:05:40;;;;;;;12.52;6.88;;;;;;;9.79;100.00;101448.47;10540328;28;20044;-71
2022/11/05 09:10:45;;;;;;;11.35;6.35;;;;;;;10.46;100.00;101449.97;10538218;28;20547;-77
2022/11/05 09:15:47;;;;;;;9.75;6.30;;;;;;;12.01;100.00;101454.13;10539873;28;20492;-74
2022/11/05 09:20:48;;;;;;;10.70;6.38;;;;;;;10.92;100.00;101452.81;10539424;28;20047;-72
2022/11/05 09:25:51;;;;;;;6.50;5.78;;;;;;;11.08;100.00;101447.91;10539603;28;20051;-74
2022/11/05 09:30:53;;;;;;;9.18;5.95;;;;;;;11.31;99.59;101456.69;10539061;28;20048;-76
2022/11/05 09:35:55;;;;;;;10.85;6.57;;;;;;;11.53;100.00;101454.16;10539682;28;20062;-70
2022/11/05 09:41:03;;;;;;;9.75;6.30;;;;;;;12.19;100.00;101462.22;10536799;28;20105;-77
2022/11/05 09:46:13;;;;;;;7.85;5.90;;;;;;;11.91;100.00;101466.69;10538895;28;20045;-74
2022/11/05 09:51:17;;;;;;;;;;;;;;;11.50;93.11;101469.94;10540979;28;20514;-76
2022/11/05 09:56:24;;;;;;;;;;;;;;;10.87;94.43;101479.09;10538623;28;19958;-76
2022/11/05 10:01:31;;;;;;;9.07;5.05;;;;;;;11.09;93.05;101478.38;10538558;28;19924;-72
2022/11/05 10:06:34;;;;;;;8.45;5.50;;;;;;;10.90;100.00;101483.34;10537973;28;20143;-73
2022/11/05 10:11:45;;;;;;;9.55;5.38;;;;;;;10.22;100.00;101478.50;10535532;28;20115;-71
2022/11/05 10:16:54;;;;;;;8.43;5.53;;;;;;;9.45;100.00;101493.75;10537867;28;20105;-69
2022/11/05 10:22:09;;;;;;;8.18;5.45;;;;;;;9.48;100.00;101493.63;10537539;28;20098;-76
2022/11/05 10:27:19;;;;;;;7.88;5.68;;;;;;;9.44;100.00;101499.00;10536585;28;20047;-73
2022/11/05 10:32:29;;;;;;;10.00;6.22;;;;;;;9.34;100.00;101516.63;10537532;28;20063;-72
2022/11/05 10:37:33;;;;;;;8.75;6.18;;;;;;;9.28;100.00;101512.41;10537052;28;20055;-76
2022/11/05 10:42:56;;;;;;;11.32;6.18;;;;;;;9.28;100.00;101508.06;10533822;28;20411;-77
2022/11/05 10:48:24;;;;;;;13.90;7.30;;;;;;;9.24;100.00;101505.59;10536710;28;20060;-72
2022/11/05 10:53:30;;;;;;;10.00;6.28;;;;;;;9.25;100.00;101507.28;10536676;28;20060;-65
2022/11/05 10:58:36;;;;;;;12.52;7.45;;;;;;;9.17;100.00;101498.81;10536780;28;20040;-70
2022/11/05 11:03:46;;;;;;;11.95;7.57;;;;;;;9.25;100.00;101502.94;10536565;28;20143;-68
2022/11/05 11:08:51;;;;;;;12.57;6.93;;;;;;;9.33;100.00;101499.25;10536731;28;20127;-67
2022/11/05 11:14:02;;;;;;;11.18;6.60;;;;;;;9.47;100.00;101504.97;10534425;28;20044;-68
2022/11/05 11:19:25;;;;;;;14.17;6.60;;;;;;;9.20;100.00;101509.16;10536231;28;20400;-71
2022/11/05 11:24:27;;;;;;;10.30;6.85;;;;;;;9.52;100.00;101490.03;10536724;28;20097;-65
2022/11/05 11:29:38;;;;;;;11.25;6.40;;;;;;;9.71;100.00;101486.94;10536036;28;20101;-66
2022/11/05 11:34:43;;;;;;;12.65;6.32;;;;;;;10.65;100.00;101481.56;10536016;28;20058;-64
2022/11/05 11:39:50;;;;;;;10.02;5.88;;;;;;;11.25;95.54;101476.06;10535819;28;20105;-66
2022/11/05 11:44:54;;;;;;;11.73;5.57;;;;;;;11.06;96.97;101478.47;10533169;28;20052;-65
2022/11/05 11:49:59;;;;;;;10.75;5.75;;;;;;;11.85;97.96;101475.63;10536121;28;20101;-64
2022/11/05 11:55:22;;;;;;;6.45;4.90;;;;;;;12.30;87.25;101486.19;10543427;28;20093;-65
2022/11/05 12:00:25;;;;;;;8.38;4.97;;;;;;;13.00;85.50;101477.25;10543391;28;20040;-64
2022/11/05 12:05:41;;;;;;;8.82;4.55;;;;;;;12.31;86.05;101468.72;10542468;28;20058;-64
2022/11/05 12:10:59;;;;;;;7.97;4.45;;;;;;;12.17;89.51;101464.03;10540101;28;20117;-63
2022/11/05 12:16:17;;;;;;;7.57;4.50;;;;;;;11.93;87.54;101466.66;10542557;28;20113;-63
2022/11/05 12:21:30;;;;;;;11.25;5.00;;;;;;;11.55;92.79;101478.50;10542330;28;20499;-64
2022/11/05 12:26:47;;;;;;;9.45;4.13;;;;;;;10.98;96.17;101468.25;10542381;28;20048;-63
2022/11/05 12:32:18;;;;;;;7.70;4.47;;;;;;;10.68;96.16;101460.56;10541585;28;20143;-65
2022/11/05 12:37:32;;;;;;;7.47;4.07;;;;;;;11.03;92.49;101455.94;10542671;28;20093;-65
2022/11/05 12:42:54;;;;;;;6.28;4.13;;;;;;;10.84;94.74;101444.41;10538710;28;20484;-65
2022/11/05 12:48:19;;;;;;;8.73;3.88;;;;;;;10.52;97.21;101440.19;10541554;28;20078;-65
2022/11/05 12:53:47;;;;;;;5.07;3.13;;;;;;;10.48;95.22;101433.38;10540904;28;20109;-66
2022/11/05 12:59:00;;;;;;;4.95;3.40;;;;;;;10.49;94.78;101435.06;10540679;28;20093;-65
2022/11/05 13:04:16;;;;;;;7.07;3.45;;;;;;;10.60;96.35;101426.06;10539450;28;20084;-64
2022/11/05 13:09:28;;;;;;;8.15;4.10;;;;;;;10.62;94.86;101422.47;10522096;28;20105;-64
2022/11/05 13:14:40;;;;;;;5.15;3.40;;;;;;;11.14;93.58;101410.28;10504494;28;20048;-64
2022/11/05 13:19:51;;;;;;;;;;;;;;;11.27;92.49;101406.31;10540008;28;20110;-65
2022/11/05 13:24:59;;;;;;;8.02;3.45;;;;;;;11.46;90.24;101395.16;10521020;28;19920;-64
2022/11/05 13:30:04;;;;;;;7.55;3.65;;;;;;;10.88;92.19;101399.84;10498495;28;20086;-66
2022/11/05 13:35:20;;;;;;;6.00;3.42;;;;;;;10.80;92.18;101394.91;10517026;28;20052;-64
2022/11/05 13:40:36;;;;;;;8.52;3.05;;;;;;;10.60;92.39;101379.91;10540396;28;20040;-64
2022/11/05 13:46:25;;;;;;;4.93;3.20;;;;;;;10.52;92.92;101385.41;10540474;28;20048;-66
2022/11/05 13:51:55;;;;;;;5.53;3.20;;;;;;;10.66;92.84;101377.09;10540613;28;20047;-65
2022/11/05 13:57:26;;;;;;;9.38;3.60;;;;;;;10.49;94.00;101380.28;10537912;28;20051;-66
2022/11/05 14:02:38;;;;;;;7.40;3.58;;;;;;;10.49;96.51;101377.66;10540052;28;20048;-64
2022/11/05 14:07:48;;;;;;;6.55;3.95;;;;;;;10.49;96.72;101382.03;10539773;28;20056;-66
2022/11/05 14:12:55;;;;;;;8.48;3.75;;;;;;;10.29;95.87;101384.38;10536829;28;20055;-66
2022/11/05 14:18:02;;;;;;;6.78;4.18;;;;;;;10.37;95.47;101375.44;10519013;28;20089;-66
2022/11/05 14:23:38;;;;;;;4.55;3.22;;;;;;;10.32;96.17;101375.59;10510616;28;20102;-66
2022/11/05 14:28:45;;;;;;;9.57;3.67;;;;;;;10.42;96.69;101366.56;10537479;28;20094;-66
2022/11/05 14:34:00;;;;;;;9.30;3.95;;;;;;;10.37;97.90;101376.28;10535726;28;20048;-64
2022/11/05 14:39:27;;;;;;;5.68;3.60;;;;;;;10.28;97.55;101373.97;10496740;28;20059;-67
2022/11/05 14:44:30;;;;;;;4.65;3.58;;;;;;;10.22;97.36;101380.25;10493762;28;20132;-67
2022/11/05 14:49:37;;;;;;;8.88;3.45;;;;;;;10.19;98.96;101385.56;10496357;28;20556;-67
2022/11/05 14:54:47;;;;;;;5.90;3.38;;;;;;;10.16;98.49;101381.28;10496136;28;20127;-66
2022/11/05 14:59:59;;;;;;;5.03;3.42;;;;;;;10.26;97.78;101376.63;10535047;28;20052;-67
2022/11/05 15:05:39;;;;;;;5.97;3.53;;;;;;;10.17;98.79;101376.94;10537034;28;20403;-68
2022/11/05 15:10:43;;;;;;;9.07;3.25;;;;;;;10.20;98.97;101376.84;10535261;28;20109;-67
2022/11/05 15:15:49;;;;;;;5.75;3.13;;;;;;;10.17;99.32;101374.34;10537568;28;20105;-69
2022/11/05 15:20:58;;;;;;;10.63;3.67;;;;;;;10.20;99.09;101373.38;10537503;28;20143;-67
2022/11/05 15:26:10;;;;;;;7.95;3.60;;;;;;;10.04;100.00;101372.13;10539218;28;20115;-67
2022/11/05 15:31:28;;;;;;;5.28;3.25;;;;;;;9.94;100.00;101369.81;10545389;28;20553;-68
2022/11/05 15:36:31;;;;;;;9.15;3.78;;;;;;;9.88;100.00;101363.06;10545279;28;20453;-68
2022/11/05 15:41:35;;;;;;;5.55;3.67;;;;;;;9.82;100.00;101365.88;10542509;28;20048;-67
2022/11/05 15:46:36;;;;;;;6.10;3.53;;;;;;;9.77;100.00;101369.47;10518632;28;20087;-67
2022/11/05 15:51:38;;;;;;;6.68;3.47;;;;;;;9.73;100.00;101364.38;10525761;28;20051;-68
2022/11/05 15:56:51;;;;;;;8.68;3.38;;;;;;;9.72;100.00;101355.69;10543089;28;20097;-67
2022/11/05 16:02:00;;;;;;;7.88;3.70;;;;;;;9.70;100.00;101362.72;10544070;28;20116;-68
2022/11/05 16:07:10;;;;;;;6.40;3.45;;;;;;;9.74;100.00;101359.13;10543731;28;20047;-68
2022/11/05 16:12:26;;;;;;;7.13;3.20;;;;;;;9.73;100.00;101352.22;10541854;28;20093;-68
2022/11/05 16:17:46;;;;;;;5.78;3.28;;;;;;;9.72;100.00;101354.88;10543205;28;20797;-68
2022/11/05 16:22:51;;;;;;;9.23;3.25;;;;;;;9.72;100.00;101344.44;10543440;28;20051;-69
2022/11/05 16:27:54;;;;;;;4.40;3.10;;;;;;;9.76;100.00;101353.88;10542557;28;20052;-69
2022/11/05 16:33:06;;;;;;;8.13;3.50;;;;;;;9.73;100.00;101339.19;10542491;28;20067;-68
2022/11/05 16:38:12;;;;;;;5.20;3.22;;;;;;;9.69;100.00;101345.41;10541435;28;20052;-68
2022/11/05 16:43:23;;;;;;;9.40;3.75;;;;;;;9.67;100.00;101341.97;10540271;28;20044;-68
2022/11/05 16:48:26;;;;;;;10.02;2.97;;;;;;;9.66;100.00;101353.31;10545834;28;20048;-67
2022/11/05 16:53:27;;;;;;;4.82;3.50;;;;;;;9.66;100.00;101340.28;10549054;28;20070;-68
2022/11/05 16:58:31;;;;;;;8.02;3.88;;;;;;;9.62;100.00;101342.09;10541717;28;20408;-68
2022/11/05 17:03:32;;;;;;;9.45;4.45;;;;;;;9.62;100.00;101339.50;10540546;28;20083;-69
2022/11/05 17:08:34;;;;;;;11.07;4.45;;;;;;;9.66;100.00;101338.50;10540240;28;20124;-69
2022/11/05 17:13:37;;;;;;;7.60;4.28;;;;;;;9.58;100.00;101347.47;10537785;28;20496;-68
2022/11/05 17:18:41;;;;;;;8.23;4.28;;;;;;;9.57;100.00;101350.97;10540363;28;20105;-68
2022/11/05 17:23:42;;;;;;;11.38;4.65;;;;;;;9.53;100.00;101351.06;10539506;28;20102;-68
2022/11/05 17:28:45;;;;;;;5.28;3.97;;;;;;;9.56;100.00;101346.66;10539493;28;20441;-71
2022/11/05 17:33:47;;;;;;;8.45;4.53;;;;;;;9.62;100.00;101333.44;10539330;28;20055;-69
2022/11/05 17:38:48;;;;;;;7.53;4.15;;;;;;;9.56;100.00;101334.50;10539302;28;20105;-69
2022/11/05 17:43:56;;;;;;;7.78;4.03;;;;;;;9.49;100.00;101339.03;10536717;28;20564;-73
2022/11/05 17:48:59;;;;;;;8.27;4.22;;;;;;;9.42;100.00;101342.72;10538486;28;20404;-71
2022/11/05 17:54:01;;;;;;;5.45;4.10;;;;;;;9.48;100.00;101346.91;10538091;28;20052;-70
2022/11/05 17:59:05;;;;;;;8.70;4.72;;;;;;;9.41;100.00;101356.63;10537940;28;20089;-74
2022/11/05 18:04:07;;;;;;;6.55;4.50;;;;;;;9.35;100.00;101368.09;10538522;28;20090;-73
2022/11/05 18:09:10;;;;;;;9.95;4.90;;;;;;;9.39;100.00;101366.25;10537892;28;20082;-71
2022/11/05 18:14:13;;;;;;;11.00;4.88;;;;;;;9.30;100.00;101375.19;10535570;28;20066;-65
2022/11/05 18:19:15;;;;;;;10.38;5.50;;;;;;;9.26;100.00;101369.22;10538125;28;20048;-69
2022/11/05 18:24:17;;;;;;;7.38;5.30;;;;;;;9.23;100.00;101366.69;10537346;28;20047;-70
2022/11/05 18:29:20;;;;;;;8.50;5.35;;;;;;;9.23;100.00;101365.81;10537450;28;20060;-72
2022/11/05 18:34:21;;;;;;;8.40;4.85;;;;;;;9.17;100.00;101368.63;10537236;28;20116;-67
2022/11/05 18:39:23;;;;;;;7.95;4.18;;;;;;;9.12;100.00;101360.94;10537145;28;20440;-73
2022/11/05 18:44:28;;;;;;;7.68;4.05;;;;;;;9.08;100.00;101356.69;10534759;28;20097;-69
2022/11/05 18:49:29;;;;;;;10.70;6.65;;;;;;;9.07;100.00;101376.66;10537154;28;20048;-70
2022/11/05 18:54:32;;;;;;;7.43;5.55;;;;;;;9.01;100.00;101369.88;10536939;28;20101;-71
2022/11/05 18:59:35;;;;;;;11.85;6.22;;;;;;;9.00;100.00;101373.38;10536633;28;20105;-73
2022/11/05 19:04:37;;;;;;;6.20;5.57;;;;;;;8.94;100.00;101376.16;10544414;28;20048;-72
2022/11/05 19:09:39;;;;;;;;;;;;;;;8.92;100.00;101364.06;10545897;28;20051;-69
2022/11/05 19:14:43;;;;;;;12.07;6.80;;;;;;;8.93;100.00;101361.44;10544473;28;20019;-69
2022/11/05 19:19:45;;;;;;;12.55;5.63;;;;;;;8.89;100.00;101359.81;10544791;28;20476;-71
2022/11/05 19:24:46;;;;;;;8.60;6.25;;;;;;;8.88;100.00;101351.16;10544427;28;20048;-69
2022/11/05 19:29:50;;;;;;;13.90;7.47;;;;;;;8.87;100.00;101344.22;10544352;28;20097;-69
2022/11/05 19:34:51;;;;;;;10.82;6.90;;;;;;;8.81;100.00;101335.72;10544687;28;20069;-71
2022/11/05 19:39:53;;;;;;;9.82;6.68;;;;;;;8.81;100.00;101330.53;10543962;28;20047;-67
2022/11/05 19:44:56;;;;;;;12.43;7.55;;;;;;;8.84;100.00;101330.44;10541242;28;20048;-67
2022/11/05 19:49:57;;;;;;;8.80;6.72;;;;;;;8.72;100.00;101332.50;10543647;28;20056;-66
2022/11/05 19:54:59;;;;;;;8.55;6.00;;;;;;;8.71;100.00;101309.97;10543713;28;20128;-70
2022/11/05 20:00:02;;;;;;;9.18;6.30;;;;;;;8.55;100.00;101303.47;10543295;28;20048;-68
2022/11/05 20:05:05;;;;;;;13.20;6.68;;;;;;;8.48;100.00;101293.19;10543053;28;20139;-69
2022/11/05 20:10:08;;;;;;;10.30;7.05;;;;;;;8.40;100.00;101289.94;10543193;28;20052;-70
2022/11/05 20:15:12;;;;;;;11.93;7.53;;;;;;;8.39;100.00;101293.44;10539098;28;20093;-71
2022/11/05 20:20:14;;;;;;;9.00;6.47;;;;;;;8.38;100.00;101309.91;10542387;28;20452;-69
2022/11/05 20:25:15;;;;;;;12.95;6.82;;;;;;;8.49;100.00;101299.25;10542571;28;20071;-70
2022/11/05 20:30:19;;;;;;;8.55;5.38;;;;;;;8.60;100.00;101291.19;10542062;28;20516;-68
2022/11/05 20:35:21;;;;;;;12.98;8.02;;;;;;;8.52;100.00;101303.53;10542539;28;20090;-70
2022/11/05 20:40:23;;;;;;;12.85;6.78;;;;;;;8.56;100.00;101281.75;10542780;28;20074;-69
2022/11/05 20:45:26;;;;;;;10.50;7.35;;;;;;;8.47;100.00;101288.88;10540222;28;20048;-69
2022/11/05 20:50:28;;;;;;;17.45;7.82;;;;;;;8.40;100.00;101297.75;10542386;28;20062;-69
2022/11/05 20:55:31;;;;;;;11.35;7.25;;;;;;;8.44;100.00;101301.09;10542080;28;20058;-69
2022/11/05 21:00:48;;;;;;;10.63;6.82;;;;;;;8.49;100.00;101300.09;10518443;28;20408;-69
2022/11/05 21:05:53;;;;;;;11.98;6.00;;;;;;;8.34;100.00;101309.16;10507513;28;20073;-69
2022/11/05 21:10:55;;;;;;;11.57;6.20;;;;;;;8.39;100.00;101316.84;10499164;28;20060;-69
2022/11/05 21:16:01;;;;;;;14.23;5.78;;;;;;;8.33;100.00;101324.78;10513148;28;20048;-72
2022/11/05 21:21:06;;;;;;;12.73;6.70;;;;;;;8.31;100.00;101326.59;10498700;28;20415;-69
2022/11/05 21:26:11;;;;;;;12.10;6.47;;;;;;;8.25;100.00;101325.00;10498174;28;20045;-70
2022/11/05 21:31:14;;;;;;;6.43;5.00;;;;;;;8.29;100.00;101323.16;10499107;28;20076;-71
2022/11/05 21:36:16;;;;;;;9.38;6.22;;;;;;;8.25;100.00;101331.03;10499005;28;20086;-72
2022/11/05 21:41:18;;;;;;;10.27;5.88;;;;;;;8.24;100.00;101318.06;10496470;28;20484;-67
2022/11/05 21:46:22;;;;;;;11.20;6.07;;;;;;;8.08;100.00;101309.81;10498671;28;20045;-69
2022/11/05 22:02:08;;;;;;;8.77;5.63;;;;;;;8.12;100.00;101290.66;10497621;28;20065;-71
2022/11/05 22:07:14;;;;;;;8.55;5.78;;;;;;;8.17;100.00;101277.50;10497732;28;20110;-67
2022/11/05 22:12:16;;;;;;;8.73;5.93;;;;;;;8.20;100.00;101267.03;10495387;28;20488;-71
2022/11/05 22:17:20;;;;;;;10.85;6.10;;;;;;;8.24;100.00;101263.47;10497807;28;20052;-67
2022/11/05 22:22:23;;;;;;;11.93;6.13;;;;;;;8.22;100.00;101255.72;10497182;28;20143;-67
2022/11/05 22:27:24;;;;;;;7.90;5.97;;;;;;;8.22;100.00;101266.09;10497210;28;20053;-69
2022/11/05 22:32:27;;;;;;;8.25;5.20;;;;;;;8.27;100.00;101259.94;10496708;28;20116;-66
2022/11/05 22:37:29;;;;;;;10.05;6.03;;;;;;;8.21;100.00;101266.19;10495635;28;20048;-69
2022/11/05 22:42:31;;;;;;;10.10;5.38;;;;;;;8.28;100.00;101265.09;10494438;28;20136;-69
2022/11/05 22:47:33;;;;;;;9.57;5.35;;;;;;;8.30;100.00;101259.84;10496602;28;20097;-68
2022/11/05 22:52:35;;;;;;;10.57;5.30;;;;;;;8.27;100.00;101257.31;10496220;28;20053;-67
2022/11/05 22:57:37;;;;;;;7.93;5.20;;;;;;;8.28;100.00;101239.09;10496577;28;20063;-68
2022/11/05 23:02:40;;;;;;;7.45;5.10;;;;;;;8.35;100.00;101239.81;10496022;28;20098;-67
2022/11/05 23:13:01;;;;;;;8.70;4.80;;;;;;;8.42;100.00;101230.91;10493818;28;20477;-69
2022/11/05 23:28:44;;;;;;;9.70;4.90;;;;;;;8.35;100.00;101200.78;10495647;28;20072;-69
2022/11/05 23:33:50;;;;;;;6.70;4.43;;;;;;;8.23;100.00;101215.84;10495834;28;20055;-71
2022/11/05 23:38:52;;;;;;;4.07;3.33;;;;;;;8.22;100.00;101198.50;10495343;28;20153;-71
2022/11/05 23:49:18;;;;;;;9.07;4.07;;;;;;;8.12;100.00;101181.47;10499680;28;20570;-68
2022/11/05 23:54:20;;;;;;;6.97;3.72;;;;;;;8.13;100.00;101183.16;10502699;28;20052;-69
2022/11/05 23:59:22;;;;;;;8.18;3.90;;;;;;;8.11;100.00;101184.97;10502453;28;20048;-68
